Georgetown-Scott County Regional (27K)

 

Airport Diagram
No Airport Diagram Available
Current Weather/Forecast (MVFR Conditions)
METAR K27K 191455Z AUTO 00000KT 10SM BKN029 BKN042 OVC050 13/12 A3018 RMK AO1
TAF

Airport Information

All Charts
General
Chart Name View
TAKEOFF MINIMUMS
TAKEOFF MINIMUMS

Approaches
Chart Name Download
RNAV (GPS) RWY 03
RNAV (GPS) Y RWY 21
RNAV (GPS) Z RWY 21
VOR RWY 03
RNAV (GPS) RWY 03
RNAV (GPS) Y RWY 21
RNAV (GPS) Z RWY 21
VOR RWY 03


Airport Statistics
Departures Arrivals Local
All Collected Stats since June 2016: 3 3 0
2020 Stats: 1 0 0
October Stats: 0 0 0

Inbound Traffic (Arrivals) - 0

No inbound traffic.


Outbound Traffic (Departures) - 0

No outbound traffic.


Local Traffic (Pattern) - 0

No local traffic.